sensor_id;sensor_type;location;lat;lon;timestamp;temperature;humidity
34989;DHT22;21192;40.182;44.516;2023-07-08T00:02:09;25.40;71.50
34989;DHT22;21192;40.182;44.516;2023-07-08T00:04:39;25.40;71.30
34989;DHT22;21192;40.182;44.516;2023-07-08T00:07:10;25.40;71.20
34989;DHT22;21192;40.182;44.516;2023-07-08T00:09:36;25.40;70.90
34989;DHT22;21192;40.182;44.516;2023-07-08T00:12:08;25.40;70.80
34989;DHT22;21192;40.182;44.516;2023-07-08T00:14:34;25.30;70.80
34989;DHT22;21192;40.182;44.516;2023-07-08T00:17:00;25.30;71.00
34989;DHT22;21192;40.182;44.516;2023-07-08T00:19:25;25.30;71.10
34989;DHT22;21192;40.182;44.516;2023-07-08T00:21:51;25.30;71.00
34989;DHT22;21192;40.182;44.516;2023-07-08T00:24:17;25.30;71.10
34989;DHT22;21192;40.182;44.516;2023-07-08T00:26:43;25.20;71.40
34989;DHT22;21192;40.182;44.516;2023-07-08T00:29:09;25.20;71.60
34989;DHT22;21192;40.182;44.516;2023-07-08T00:31:38;25.20;72.00
34989;DHT22;21192;40.182;44.516;2023-07-08T00:34:04;25.20;72.20
34989;DHT22;21192;40.182;44.516;2023-07-08T00:36:30;25.10;72.10
34989;DHT22;21192;40.182;44.516;2023-07-08T00:38:57;25.10;72.20
34989;DHT22;21192;40.182;44.516;2023-07-08T00:41:27;25.10;72.40
34989;DHT22;21192;40.182;44.516;2023-07-08T00:43:56;25.10;72.20
34989;DHT22;21192;40.182;44.516;2023-07-08T00:46:34;25.10;72.20
34989;DHT22;21192;40.182;44.516;2023-07-08T00:51:47;25.10;72.70
34989;DHT22;21192;40.182;44.516;2023-07-08T00:54:15;25.10;72.50
34989;DHT22;21192;40.182;44.516;2023-07-08T00:59:11;25.10;72.60
34989;DHT22;21192;40.182;44.516;2023-07-08T01:01:41;25.00;72.80
34989;DHT22;21192;40.182;44.516;2023-07-08T01:04:18;25.00;72.60
34989;DHT22;21192;40.182;44.516;2023-07-08T01:06:48;25.00;72.60
34989;DHT22;21192;40.182;44.516;2023-07-08T01:09:27;25.00;72.60
34989;DHT22;21192;40.182;44.516;2023-07-08T01:11:56;25.10;72.60
34989;DHT22;21192;40.182;44.516;2023-07-08T01:14:25;25.00;72.50
34989;DHT22;21192;40.182;44.516;2023-07-08T01:16:53;25.00;72.60
34989;DHT22;21192;40.182;44.516;2023-07-08T01:19:21;25.00;72.60
34989;DHT22;21192;40.182;44.516;2023-07-08T01:24:25;24.90;72.60
34989;DHT22;21192;40.182;44.516;2023-07-08T01:26:52;24.90;72.60
34989;DHT22;21192;40.182;44.516;2023-07-08T01:29:18;24.90;72.60
34989;DHT22;21192;40.182;44.516;2023-07-08T01:31:44;24.90;72.60
34989;DHT22;21192;40.182;44.516;2023-07-08T01:34:15;24.90;72.60
34989;DHT22;21192;40.182;44.516;2023-07-08T01:36:46;24.90;72.40
34989;DHT22;21192;40.182;44.516;2023-07-08T01:39:16;24.90;72.20
34989;DHT22;21192;40.182;44.516;2023-07-08T01:41:43;24.90;71.90
34989;DHT22;21192;40.182;44.516;2023-07-08T01:44:29;24.90;71.80
34989;DHT22;21192;40.182;44.516;2023-07-08T01:47:00;24.90;71.70
34989;DHT22;21192;40.182;44.516;2023-07-08T01:49:27;25.00;71.60
34989;DHT22;21192;40.182;44.516;2023-07-08T01:51:54;24.90;71.40
34989;DHT22;21192;40.182;44.516;2023-07-08T01:54:20;24.90;71.30
34989;DHT22;21192;40.182;44.516;2023-07-08T01:56:46;25.00;71.30
34989;DHT22;21192;40.182;44.516;2023-07-08T01:59:12;25.00;71.00
34989;DHT22;21192;40.182;44.516;2023-07-08T02:01:38;25.00;71.00
34989;DHT22;21192;40.182;44.516;2023-07-08T02:04:04;25.00;70.90
34989;DHT22;21192;40.182;44.516;2023-07-08T02:06:29;25.00;70.90
34989;DHT22;21192;40.182;44.516;2023-07-08T02:08:55;25.00;70.80
34989;DHT22;21192;40.182;44.516;2023-07-08T02:11:24;25.10;70.90
34989;DHT22;21192;40.182;44.516;2023-07-08T02:13:50;25.10;70.60
34989;DHT22;21192;40.182;44.516;2023-07-08T02:16:16;25.10;70.30
34989;DHT22;21192;40.182;44.516;2023-07-08T02:18:42;25.20;70.30
34989;DHT22;21192;40.182;44.516;2023-07-08T02:21:08;25.30;70.00
34989;DHT22;21192;40.182;44.516;2023-07-08T02:23:34;25.30;69.60
34989;DHT22;21192;40.182;44.516;2023-07-08T02:26:00;25.50;69.50
34989;DHT22;21192;40.182;44.516;2023-07-08T02:28:26;25.50;69.10
34989;DHT22;21192;40.182;44.516;2023-07-08T02:30:52;25.60;68.90
34989;DHT22;21192;40.182;44.516;2023-07-08T02:33:17;25.70;68.70
34989;DHT22;21192;40.182;44.516;2023-07-08T02:35:43;25.90;68.40
34989;DHT22;21192;40.182;44.516;2023-07-08T02:38:10;26.10;68.00
34989;DHT22;21192;40.182;44.516;2023-07-08T02:40:36;26.70;67.50
34989;DHT22;21192;40.182;44.516;2023-07-08T02:43:02;27.30;66.30
34989;DHT22;21192;40.182;44.516;2023-07-08T02:45:27;27.90;64.60
34989;DHT22;21192;40.182;44.516;2023-07-08T02:47:53;28.60;62.90
34989;DHT22;21192;40.182;44.516;2023-07-08T02:50:19;29.40;61.10
34989;DHT22;21192;40.182;44.516;2023-07-08T02:52:45;30.00;59.40
34989;DHT22;21192;40.182;44.516;2023-07-08T02:55:11;30.60;58.00
34989;DHT22;21192;40.182;44.516;2023-07-08T02:57:36;31.40;56.80
34989;DHT22;21192;40.182;44.516;2023-07-08T03:00:03;32.00;55.50
34989;DHT22;21192;40.182;44.516;2023-07-08T03:02:32;32.70;54.30
34989;DHT22;21192;40.182;44.516;2023-07-08T03:04:58;33.40;52.90
34989;DHT22;21192;40.182;44.516;2023-07-08T03:07:25;34.00;51.70
34989;DHT22;21192;40.182;44.516;2023-07-08T03:09:50;34.70;50.70
34989;DHT22;21192;40.182;44.516;2023-07-08T03:12:16;35.20;49.60
34989;DHT22;21192;40.182;44.516;2023-07-08T03:14:42;35.80;48.70
34989;DHT22;21192;40.182;44.516;2023-07-08T03:17:08;36.20;47.70
34989;DHT22;21192;40.182;44.516;2023-07-08T03:19:34;36.70;47.10
34989;DHT22;21192;40.182;44.516;2023-07-08T03:22:00;37.30;46.10
34989;DHT22;21192;40.182;44.516;2023-07-08T03:24:28;37.80;45.30
34989;DHT22;21192;40.182;44.516;2023-07-08T03:26:55;38.30;44.70
34989;DHT22;21192;40.182;44.516;2023-07-08T03:29:21;38.80;43.90
34989;DHT22;21192;40.182;44.516;2023-07-08T03:31:47;39.40;43.20
34989;DHT22;21192;40.182;44.516;2023-07-08T03:34:14;39.80;42.50
34989;DHT22;21192;40.182;44.516;2023-07-08T03:36:46;40.40;41.70
34989;DHT22;21192;40.182;44.516;2023-07-08T03:39:20;40.70;41.00
34989;DHT22;21192;40.182;44.516;2023-07-08T03:41:48;41.10;40.50
34989;DHT22;21192;40.182;44.516;2023-07-08T03:44:14;41.60;40.00
34989;DHT22;21192;40.182;44.516;2023-07-08T03:46:48;41.80;39.50
34989;DHT22;21192;40.182;44.516;2023-07-08T03:49:21;42.20;38.90
34989;DHT22;21192;40.182;44.516;2023-07-08T03:51:51;42.40;38.20
34989;DHT22;21192;40.182;44.516;2023-07-08T03:54:20;42.60;37.90
34989;DHT22;21192;40.182;44.516;2023-07-08T03:56:47;42.80;37.50
34989;DHT22;21192;40.182;44.516;2023-07-08T03:59:13;43.20;37.30
34989;DHT22;21192;40.182;44.516;2023-07-08T04:01:39;42.80;36.80
34989;DHT22;21192;40.182;44.516;2023-07-08T04:04:08;42.70;36.90
34989;DHT22;21192;40.182;44.516;2023-07-08T04:06:36;42.80;36.90
34989;DHT22;21192;40.182;44.516;2023-07-08T04:09:02;42.20;37.10
34989;DHT22;21192;40.182;44.516;2023-07-08T04:11:28;42.10;36.70
34989;DHT22;21192;40.182;44.516;2023-07-08T04:13:53;42.40;36.70
34989;DHT22;21192;40.182;44.516;2023-07-08T04:16:26;42.70;36.10
34989;DHT22;21192;40.182;44.516;2023-07-08T04:18:56;43.30;35.30
34989;DHT22;21192;40.182;44.516;2023-07-08T04:21:23;43.90;34.50
34989;DHT22;21192;40.182;44.516;2023-07-08T04:23:52;43.50;34.30
34989;DHT22;21192;40.182;44.516;2023-07-08T04:26:19;43.90;34.00
34989;DHT22;21192;40.182;44.516;2023-07-08T04:28:45;44.20;33.50
34989;DHT22;21192;40.182;44.516;2023-07-08T04:31:11;44.20;33.20
34989;DHT22;21192;40.182;44.516;2023-07-08T04:33:37;44.80;32.70
34989;DHT22;21192;40.182;44.516;2023-07-08T04:36:03;45.60;32.20
34989;DHT22;21192;40.182;44.516;2023-07-08T04:38:29;46.20;31.60
34989;DHT22;21192;40.182;44.516;2023-07-08T04:40:55;46.70;31.20
34989;DHT22;21192;40.182;44.516;2023-07-08T04:43:22;47.10;30.50
34989;DHT22;21192;40.182;44.516;2023-07-08T04:45:51;47.30;30.30
34989;DHT22;21192;40.182;44.516;2023-07-08T04:48:20;47.20;30.00
34989;DHT22;21192;40.182;44.516;2023-07-08T04:50:48;46.90;30.00
34989;DHT22;21192;40.182;44.516;2023-07-08T04:53:15;46.30;30.10
34989;DHT22;21192;40.182;44.516;2023-07-08T04:55:48;45.80;30.70
34989;DHT22;21192;40.182;44.516;2023-07-08T04:58:14;45.30;31.90
34989;DHT22;21192;40.182;44.516;2023-07-08T05:00:40;44.50;31.50
34989;DHT22;21192;40.182;44.516;2023-07-08T05:03:05;43.60;32.10
34989;DHT22;21192;40.182;44.516;2023-07-08T05:05:31;43.10;32.70
34989;DHT22;21192;40.182;44.516;2023-07-08T05:07:57;42.40;33.10
34989;DHT22;21192;40.182;44.516;2023-07-08T05:10:23;41.60;33.80
34989;DHT22;21192;40.182;44.516;2023-07-08T05:12:49;40.60;34.60
34989;DHT22;21192;40.182;44.516;2023-07-08T05:15:15;39.90;35.30
34989;DHT22;21192;40.182;44.516;2023-07-08T05:17:42;39.00;36.30
34989;DHT22;21192;40.182;44.516;2023-07-08T05:20:11;38.70;36.70
34989;DHT22;21192;40.182;44.516;2023-07-08T05:22:37;38.40;37.10
34989;DHT22;21192;40.182;44.516;2023-07-08T05:25:04;38.00;37.40
34989;DHT22;21192;40.182;44.516;2023-07-08T05:27:31;37.70;37.80
34989;DHT22;21192;40.182;44.516;2023-07-08T05:30:00;37.40;38.00
34989;DHT22;21192;40.182;44.516;2023-07-08T05:32:26;37.00;38.50
34989;DHT22;21192;40.182;44.516;2023-07-08T05:34:53;36.70;39.20
34989;DHT22;21192;40.182;44.516;2023-07-08T05:37:18;36.40;39.50
34989;DHT22;21192;40.182;44.516;2023-07-08T05:39:49;36.20;39.70
34989;DHT22;21192;40.182;44.516;2023-07-08T05:42:15;36.00;40.20
34989;DHT22;21192;40.182;44.516;2023-07-08T05:44:41;36.00;40.40
34989;DHT22;21192;40.182;44.516;2023-07-08T05:47:06;35.80;40.50
34989;DHT22;21192;40.182;44.516;2023-07-08T05:49:32;35.60;40.80
34989;DHT22;21192;40.182;44.516;2023-07-08T05:51:58;35.50;41.10
34989;DHT22;21192;40.182;44.516;2023-07-08T05:54:24;35.40;41.30
34989;DHT22;21192;40.182;44.516;2023-07-08T05:56:50;35.30;41.60
34989;DHT22;21192;40.182;44.516;2023-07-08T05:59:16;35.30;42.00
34989;DHT22;21192;40.182;44.516;2023-07-08T06:01:42;35.00;42.40
34989;DHT22;21192;40.182;44.516;2023-07-08T06:04:07;34.90;42.40
34989;DHT22;21192;40.182;44.516;2023-07-08T06:06:33;34.80;42.50
34989;DHT22;21192;40.182;44.516;2023-07-08T06:08:59;34.70;42.80
34989;DHT22;21192;40.182;44.516;2023-07-08T06:11:25;34.60;42.90
34989;DHT22;21192;40.182;44.516;2023-07-08T06:13:51;34.50;43.00
34989;DHT22;21192;40.182;44.516;2023-07-08T06:16:17;34.50;43.20
34989;DHT22;21192;40.182;44.516;2023-07-08T06:18:43;34.50;43.30
34989;DHT22;21192;40.182;44.516;2023-07-08T06:21:09;34.60;43.30
34989;DHT22;21192;40.182;44.516;2023-07-08T06:23:34;34.60;43.30
34989;DHT22;21192;40.182;44.516;2023-07-08T06:26:00;34.60;43.10
34989;DHT22;21192;40.182;44.516;2023-07-08T06:28:26;34.70;43.20
34989;DHT22;21192;40.182;44.516;2023-07-08T06:30:52;34.70;43.30
34989;DHT22;21192;40.182;44.516;2023-07-08T06:33:17;34.70;43.20
34989;DHT22;21192;40.182;44.516;2023-07-08T06:35:43;34.70;43.30
34989;DHT22;21192;40.182;44.516;2023-07-08T06:38:10;34.80;44.20
34989;DHT22;21192;40.182;44.516;2023-07-08T06:40:36;34.90;44.70
34989;DHT22;21192;40.182;44.516;2023-07-08T06:43:04;34.90;44.80
34989;DHT22;21192;40.182;44.516;2023-07-08T06:45:30;35.00;45.00
34989;DHT22;21192;40.182;44.516;2023-07-08T06:47:56;35.00;45.40
34989;DHT22;21192;40.182;44.516;2023-07-08T06:50:22;34.80;45.90
34989;DHT22;21192;40.182;44.516;2023-07-08T06:52:48;34.70;46.10
34989;DHT22;21192;40.182;44.516;2023-07-08T06:55:14;34.70;46.40
34989;DHT22;21192;40.182;44.516;2023-07-08T06:57:40;34.80;46.60
34989;DHT22;21192;40.182;44.516;2023-07-08T07:00:07;34.70;46.60
34989;DHT22;21192;40.182;44.516;2023-07-08T07:02:33;34.50;46.70
34989;DHT22;21192;40.182;44.516;2023-07-08T07:05:01;34.50;46.80
34989;DHT22;21192;40.182;44.516;2023-07-08T07:07:27;34.60;46.80
34989;DHT22;21192;40.182;44.516;2023-07-08T07:09:53;34.60;46.70
34989;DHT22;21192;40.182;44.516;2023-07-08T07:12:19;34.60;46.60
34989;DHT22;21192;40.182;44.516;2023-07-08T07:14:45;34.70;46.60
34989;DHT22;21192;40.182;44.516;2023-07-08T07:17:11;34.70;46.40
34989;DHT22;21192;40.182;44.516;2023-07-08T07:19:37;34.80;46.20
34989;DHT22;21192;40.182;44.516;2023-07-08T07:22:03;34.70;46.00
34989;DHT22;21192;40.182;44.516;2023-07-08T07:24:29;34.60;46.10
34989;DHT22;21192;40.182;44.516;2023-07-08T07:26:55;34.40;46.10
34989;DHT22;21192;40.182;44.516;2023-07-08T07:29:22;34.40;46.20
34989;DHT22;21192;40.182;44.516;2023-07-08T07:31:48;34.30;46.20
34989;DHT22;21192;40.182;44.516;2023-07-08T07:34:14;34.10;46.10
34989;DHT22;21192;40.182;44.516;2023-07-08T07:36:40;34.00;46.10
34989;DHT22;21192;40.182;44.516;2023-07-08T07:39:06;34.00;46.20
34989;DHT22;21192;40.182;44.516;2023-07-08T07:41:32;34.00;46.40
34989;DHT22;21192;40.182;44.516;2023-07-08T07:43:58;33.80;46.30
34989;DHT22;21192;40.182;44.516;2023-07-08T07:46:23;33.70;46.40
34989;DHT22;21192;40.182;44.516;2023-07-08T07:48:49;33.70;46.60
34989;DHT22;21192;40.182;44.516;2023-07-08T07:51:15;33.80;46.50
34989;DHT22;21192;40.182;44.516;2023-07-08T07:53:41;33.70;46.30
34989;DHT22;21192;40.182;44.516;2023-07-08T07:56:07;33.70;46.10
34989;DHT22;21192;40.182;44.516;2023-07-08T07:58:34;33.50;46.00
34989;DHT22;21192;40.182;44.516;2023-07-08T08:01:00;33.60;46.20
34989;DHT22;21192;40.182;44.516;2023-07-08T08:03:26;33.60;46.00
34989;DHT22;21192;40.182;44.516;2023-07-08T08:05:51;33.60;46.00
34989;DHT22;21192;40.182;44.516;2023-07-08T08:08:19;33.60;45.90
34989;DHT22;21192;40.182;44.516;2023-07-08T08:10:45;33.60;46.00
34989;DHT22;21192;40.182;44.516;2023-07-08T08:13:11;33.60;46.10
34989;DHT22;21192;40.182;44.516;2023-07-08T08:15:37;33.70;46.20
34989;DHT22;21192;40.182;44.516;2023-07-08T08:18:04;33.80;46.20
34989;DHT22;21192;40.182;44.516;2023-07-08T08:20:30;33.90;46.10
34989;DHT22;21192;40.182;44.516;2023-07-08T08:22:56;33.80;46.00
34989;DHT22;21192;40.182;44.516;2023-07-08T08:25:24;33.70;46.00
34989;DHT22;21192;40.182;44.516;2023-07-08T08:27:50;33.50;46.00
34989;DHT22;21192;40.182;44.516;2023-07-08T08:30:17;33.60;46.10
34989;DHT22;21192;40.182;44.516;2023-07-08T08:32:43;33.60;46.30
34989;DHT22;21192;40.182;44.516;2023-07-08T08:35:09;33.60;46.40
34989;DHT22;21192;40.182;44.516;2023-07-08T08:37:35;33.70;46.50
34989;DHT22;21192;40.182;44.516;2023-07-08T08:40:01;33.70;46.30
34989;DHT22;21192;40.182;44.516;2023-07-08T08:42:34;33.70;46.30
34989;DHT22;21192;40.182;44.516;2023-07-08T08:45:02;33.70;46.40
34989;DHT22;21192;40.182;44.516;2023-07-08T08:47:38;33.70;46.10
34989;DHT22;21192;40.182;44.516;2023-07-08T08:50:20;33.60;45.90
34989;DHT22;21192;40.182;44.516;2023-07-08T08:52:51;33.60;46.30
34989;DHT22;21192;40.182;44.516;2023-07-08T08:55:21;33.60;46.30
34989;DHT22;21192;40.182;44.516;2023-07-08T09:03:15;33.60;45.90
34989;DHT22;21192;40.182;44.516;2023-07-08T09:05:44;33.70;45.90
34989;DHT22;21192;40.182;44.516;2023-07-08T09:08:15;33.70;45.70
34989;DHT22;21192;40.182;44.516;2023-07-08T09:13:24;33.70;45.80
34989;DHT22;21192;40.182;44.516;2023-07-08T09:18:56;33.70;45.10
34989;DHT22;21192;40.182;44.516;2023-07-08T09:21:32;33.80;45.10
34989;DHT22;21192;40.182;44.516;2023-07-08T09:24:02;33.80;45.30
34989;DHT22;21192;40.182;44.516;2023-07-08T09:26:30;33.80;45.20
34989;DHT22;21192;40.182;44.516;2023-07-08T09:28:58;33.90;44.70
34989;DHT22;21192;40.182;44.516;2023-07-08T09:31:30;33.90;44.30
34989;DHT22;21192;40.182;44.516;2023-07-08T09:34:22;33.90;44.00
34989;DHT22;21192;40.182;44.516;2023-07-08T09:36:50;33.90;43.70
34989;DHT22;21192;40.182;44.516;2023-07-08T09:39:19;33.90;43.80
34989;DHT22;21192;40.182;44.516;2023-07-08T09:41:46;33.90;43.90
34989;DHT22;21192;40.182;44.516;2023-07-08T09:44:23;34.00;43.90
34989;DHT22;21192;40.182;44.516;2023-07-08T09:47:00;33.90;42.70
34989;DHT22;21192;40.182;44.516;2023-07-08T09:49:34;33.80;42.60
34989;DHT22;21192;40.182;44.516;2023-07-08T09:52:01;33.80;42.70
34989;DHT22;21192;40.182;44.516;2023-07-08T09:54:28;34.00;43.00
34989;DHT22;21192;40.182;44.516;2023-07-08T09:57:02;34.00;42.60
34989;DHT22;21192;40.182;44.516;2023-07-08T09:59:31;34.10;41.90
34989;DHT22;21192;40.182;44.516;2023-07-08T10:05:19;34.20;42.10
34989;DHT22;21192;40.182;44.516;2023-07-08T10:07:47;34.20;40.60
34989;DHT22;21192;40.182;44.516;2023-07-08T10:10:18;34.30;40.80
34989;DHT22;21192;40.182;44.516;2023-07-08T10:12:56;34.40;40.60
34989;DHT22;21192;40.182;44.516;2023-07-08T10:17:54;34.50;40.30
34989;DHT22;21192;40.182;44.516;2023-07-08T10:20:21;34.60;39.70
34989;DHT22;21192;40.182;44.516;2023-07-08T10:22:53;34.60;39.90
34989;DHT22;21192;40.182;44.516;2023-07-08T10:25:32;34.70;39.50
34989;DHT22;21192;40.182;44.516;2023-07-08T10:44:31;35.00;39.80
34989;DHT22;21192;40.182;44.516;2023-07-08T10:47:25;35.10;39.50
34989;DHT22;21192;40.182;44.516;2023-07-08T10:52:42;35.20;39.30
34989;DHT22;21192;40.182;44.516;2023-07-08T11:06:58;35.40;40.20
34989;DHT22;21192;40.182;44.516;2023-07-08T11:09:41;35.40;39.80
34989;DHT22;21192;40.182;44.516;2023-07-08T11:14:47;35.40;39.40
34989;DHT22;21192;40.182;44.516;2023-07-08T11:25:42;35.30;39.80
34989;DHT22;21192;40.182;44.516;2023-07-08T11:28:16;35.20;39.90
34989;DHT22;21192;40.182;44.516;2023-07-08T11:30:44;35.10;40.30
34989;DHT22;21192;40.182;44.516;2023-07-08T11:33:12;35.10;40.10
34989;DHT22;21192;40.182;44.516;2023-07-08T11:35:44;35.20;39.90
34989;DHT22;21192;40.182;44.516;2023-07-08T11:38:17;35.20;39.60
34989;DHT22;21192;40.182;44.516;2023-07-08T11:40:59;35.30;39.50
34989;DHT22;21192;40.182;44.516;2023-07-08T11:43:28;35.40;39.00
34989;DHT22;21192;40.182;44.516;2023-07-08T11:46:06;35.50;39.00
34989;DHT22;21192;40.182;44.516;2023-07-08T11:48:42;35.50;39.10
34989;DHT22;21192;40.182;44.516;2023-07-08T11:51:16;35.50;38.90
34989;DHT22;21192;40.182;44.516;2023-07-08T11:56:27;35.50;38.80
34989;DHT22;21192;40.182;44.516;2023-07-08T11:59:19;35.40;38.70
34989;DHT22;21192;40.182;44.516;2023-07-08T12:04:33;35.30;38.90
34989;DHT22;21192;40.182;44.516;2023-07-08T12:07:15;35.30;40.30
34989;DHT22;21192;40.182;44.516;2023-07-08T12:09:48;35.30;41.30
34989;DHT22;21192;40.182;44.516;2023-07-08T12:12:29;35.30;42.00
34989;DHT22;21192;40.182;44.516;2023-07-08T12:15:07;35.30;42.70
34989;DHT22;21192;40.182;44.516;2023-07-08T12:17:37;35.20;44.10
34989;DHT22;21192;40.182;44.516;2023-07-08T12:20:11;35.20;45.50
34989;DHT22;21192;40.182;44.516;2023-07-08T12:22:41;35.20;46.40
34989;DHT22;21192;40.182;44.516;2023-07-08T12:25:15;35.20;46.60
34989;DHT22;21192;40.182;44.516;2023-07-08T12:27:42;35.20;46.80
34989;DHT22;21192;40.182;44.516;2023-07-08T12:30:11;35.10;47.10
34989;DHT22;21192;40.182;44.516;2023-07-08T12:32:37;35.00;47.30
34989;DHT22;21192;40.182;44.516;2023-07-08T12:35:04;34.90;47.40
34989;DHT22;21192;40.182;44.516;2023-07-08T12:37:31;34.90;47.40
34989;DHT22;21192;40.182;44.516;2023-07-08T12:39:58;35.00;47.30
34989;DHT22;21192;40.182;44.516;2023-07-08T12:42:30;35.10;47.50
34989;DHT22;21192;40.182;44.516;2023-07-08T12:44:56;35.10;47.50
34989;DHT22;21192;40.182;44.516;2023-07-08T12:47:22;35.00;47.80
34989;DHT22;21192;40.182;44.516;2023-07-08T12:49:48;35.00;48.10
34989;DHT22;21192;40.182;44.516;2023-07-08T12:52:23;34.90;48.40
34989;DHT22;21192;40.182;44.516;2023-07-08T12:54:50;34.90;48.10
34989;DHT22;21192;40.182;44.516;2023-07-08T12:57:17;34.70;47.90
34989;DHT22;21192;40.182;44.516;2023-07-08T12:59:44;34.50;48.10
34989;DHT22;21192;40.182;44.516;2023-07-08T13:02:21;34.40;48.60
34989;DHT22;21192;40.182;44.516;2023-07-08T13:04:51;34.40;49.20
34989;DHT22;21192;40.182;44.516;2023-07-08T13:07:41;34.30;49.50
34989;DHT22;21192;40.182;44.516;2023-07-08T13:10:16;34.40;49.70
34989;DHT22;21192;40.182;44.516;2023-07-08T13:12:43;34.40;49.70
34989;DHT22;21192;40.182;44.516;2023-07-08T13:15:21;34.30;50.10
34989;DHT22;21192;40.182;44.516;2023-07-08T13:17:48;34.30;50.60
34989;DHT22;21192;40.182;44.516;2023-07-08T13:20:15;34.20;50.90
34989;DHT22;21192;40.182;44.516;2023-07-08T13:22:43;34.10;51.20
34989;DHT22;21192;40.182;44.516;2023-07-08T13:25:16;34.10;51.50
34989;DHT22;21192;40.182;44.516;2023-07-08T13:27:54;34.00;51.60
34989;DHT22;21192;40.182;44.516;2023-07-08T13:30:24;34.00;51.50
34989;DHT22;21192;40.182;44.516;2023-07-08T13:32:58;33.80;51.90
34989;DHT22;21192;40.182;44.516;2023-07-08T13:35:43;33.70;52.30
34989;DHT22;21192;40.182;44.516;2023-07-08T13:38:17;33.70;52.30
34989;DHT22;21192;40.182;44.516;2023-07-08T13:40:53;33.60;52.30
34989;DHT22;21192;40.182;44.516;2023-07-08T13:43:31;33.60;52.40
34989;DHT22;21192;40.182;44.516;2023-07-08T13:45:58;33.60;52.30
34989;DHT22;21192;40.182;44.516;2023-07-08T13:48:42;33.60;52.30
34989;DHT22;21192;40.182;44.516;2023-07-08T13:53:57;33.40;52.70
34989;DHT22;21192;40.182;44.516;2023-07-08T13:56:34;33.30;53.00
34989;DHT22;21192;40.182;44.516;2023-07-08T13:59:08;33.20;53.30
34989;DHT22;21192;40.182;44.516;2023-07-08T14:01:38;33.10;53.30
34989;DHT22;21192;40.182;44.516;2023-07-08T14:04:05;33.00;53.30
34989;DHT22;21192;40.182;44.516;2023-07-08T14:06:34;32.90;53.60
34989;DHT22;21192;40.182;44.516;2023-07-08T14:11:37;32.70;54.10
34989;DHT22;21192;40.182;44.516;2023-07-08T14:14:03;32.70;54.20
34989;DHT22;21192;40.182;44.516;2023-07-08T14:16:31;32.60;54.50
34989;DHT22;21192;40.182;44.516;2023-07-08T14:19:02;32.50;54.60
34989;DHT22;21192;40.182;44.516;2023-07-08T14:21:35;32.40;54.80
34989;DHT22;21192;40.182;44.516;2023-07-08T14:24:01;32.30;55.20
34989;DHT22;21192;40.182;44.516;2023-07-08T14:26:29;32.10;55.30
34989;DHT22;21192;40.182;44.516;2023-07-08T14:28:55;32.00;55.50
34989;DHT22;21192;40.182;44.516;2023-07-08T14:31:22;31.90;55.60
34989;DHT22;21192;40.182;44.516;2023-07-08T14:33:51;31.80;55.80
34989;DHT22;21192;40.182;44.516;2023-07-08T14:36:19;31.70;55.90
34989;DHT22;21192;40.182;44.516;2023-07-08T14:38:45;31.60;56.10
34989;DHT22;21192;40.182;44.516;2023-07-08T14:41:11;31.40;56.20
34989;DHT22;21192;40.182;44.516;2023-07-08T14:43:36;31.30;56.40
34989;DHT22;21192;40.182;44.516;2023-07-08T14:46:05;31.10;56.70
34989;DHT22;21192;40.182;44.516;2023-07-08T14:48:32;31.00;57.10
34989;DHT22;21192;40.182;44.516;2023-07-08T14:50:58;30.80;57.30
34989;DHT22;21192;40.182;44.516;2023-07-08T14:53:25;30.70;57.60
34989;DHT22;21192;40.182;44.516;2023-07-08T14:55:52;30.50;58.00
34989;DHT22;21192;40.182;44.516;2023-07-08T14:58:23;30.40;58.30
34989;DHT22;21192;40.182;44.516;2023-07-08T15:00:54;30.30;58.70
34989;DHT22;21192;40.182;44.516;2023-07-08T15:03:20;30.10;59.00
34989;DHT22;21192;40.182;44.516;2023-07-08T15:05:46;30.00;59.20
34989;DHT22;21192;40.182;44.516;2023-07-08T15:08:13;29.90;60.00
34989;DHT22;21192;40.182;44.516;2023-07-08T15:10:42;29.80;59.50
34989;DHT22;21192;40.182;44.516;2023-07-08T15:13:09;29.70;59.80
34989;DHT22;21192;40.182;44.516;2023-07-08T15:15:35;29.60;60.10
34989;DHT22;21192;40.182;44.516;2023-07-08T15:18:08;29.40;60.70
34989;DHT22;21192;40.182;44.516;2023-07-08T15:20:35;29.30;61.00
34989;DHT22;21192;40.182;44.516;2023-07-08T15:23:02;29.20;61.20
34989;DHT22;21192;40.182;44.516;2023-07-08T15:25:27;29.10;61.30
34989;DHT22;21192;40.182;44.516;2023-07-08T15:27:56;29.00;61.30
34989;DHT22;21192;40.182;44.516;2023-07-08T15:30:24;28.90;61.30
34989;DHT22;21192;40.182;44.516;2023-07-08T15:32:52;28.90;61.50
34989;DHT22;21192;40.182;44.516;2023-07-08T15:35:20;28.70;61.80
34989;DHT22;21192;40.182;44.516;2023-07-08T15:37:47;28.70;62.10
34989;DHT22;21192;40.182;44.516;2023-07-08T15:40:14;28.60;62.20
34989;DHT22;21192;40.182;44.516;2023-07-08T15:42:41;28.50;63.10
34989;DHT22;21192;40.182;44.516;2023-07-08T15:45:32;28.40;62.50
34989;DHT22;21192;40.182;44.516;2023-07-08T15:47:59;28.40;62.70
34989;DHT22;21192;40.182;44.516;2023-07-08T15:50:27;28.30;62.70
34989;DHT22;21192;40.182;44.516;2023-07-08T15:52:54;28.20;62.90
34989;DHT22;21192;40.182;44.516;2023-07-08T15:55:24;28.10;62.80
34989;DHT22;21192;40.182;44.516;2023-07-08T15:57:56;28.10;63.00
34989;DHT22;21192;40.182;44.516;2023-07-08T16:00:28;28.00;63.20
34989;DHT22;21192;40.182;44.516;2023-07-08T16:02:57;28.00;63.50
34989;DHT22;21192;40.182;44.516;2023-07-08T16:05:25;27.90;63.40
34989;DHT22;21192;40.182;44.516;2023-07-08T16:07:52;27.90;63.80
34989;DHT22;21192;40.182;44.516;2023-07-08T16:10:19;27.80;64.10
34989;DHT22;21192;40.182;44.516;2023-07-08T16:12:45;27.80;64.40
34989;DHT22;21192;40.182;44.516;2023-07-08T16:15:15;27.80;64.90
34989;DHT22;21192;40.182;44.516;2023-07-08T16:17:42;27.80;64.70
34989;DHT22;21192;40.182;44.516;2023-07-08T16:20:20;27.90;64.60
34989;DHT22;21192;40.182;44.516;2023-07-08T16:22:47;27.80;64.50
34989;DHT22;21192;40.182;44.516;2023-07-08T16:25:18;27.80;64.60
34989;DHT22;21192;40.182;44.516;2023-07-08T16:27:47;27.80;64.70
34989;DHT22;21192;40.182;44.516;2023-07-08T16:30:17;27.70;64.70
34989;DHT22;21192;40.182;44.516;2023-07-08T16:32:43;27.70;64.80
34989;DHT22;21192;40.182;44.516;2023-07-08T16:35:17;27.60;64.90
34989;DHT22;21192;40.182;44.516;2023-07-08T16:37:46;27.60;64.90
34989;DHT22;21192;40.182;44.516;2023-07-08T16:40:24;27.60;64.90
34989;DHT22;21192;40.182;44.516;2023-07-08T16:42:54;27.60;64.70